createdAt,value
2018-05-26T00:00:30.752Z,0.00
2018-05-26T00:01:30.945Z,0.00
2018-05-26T00:02:31.181Z,0.00
2018-05-26T00:03:31.381Z,0.00
2018-05-26T00:04:31.572Z,0.00
2018-05-26T00:05:31.764Z,0.00
2018-05-26T00:06:31.957Z,0.00
2018-05-26T00:07:32.171Z,0.00
2018-05-26T00:08:32.361Z,0.00
2018-05-26T00:09:32.645Z,0.00
2018-05-26T00:10:32.731Z,0.00
2018-05-26T00:11:32.927Z,0.00
2018-05-26T00:12:33.121Z,0.00
2018-05-26T00:13:33.309Z,0.00
2018-05-26T00:14:33.521Z,0.00
2018-05-26T00:15:33.714Z,0.00
2018-05-26T00:16:33.901Z,0.00
2018-05-26T00:17:34.096Z,0.00
2018-05-26T00:18:34.303Z,0.00
2018-05-26T00:19:34.494Z,0.00
2018-05-26T00:20:34.692Z,0.00
2018-05-26T00:21:34.898Z,0.00
2018-05-26T00:22:35.099Z,0.00
2018-05-26T00:23:35.295Z,0.00
2018-05-26T00:24:35.496Z,0.00
2018-05-26T00:25:35.691Z,0.00
2018-05-26T00:26:35.891Z,0.00
2018-05-26T00:27:36.108Z,0.00
2018-05-26T00:28:36.317Z,0.00
2018-05-26T00:29:36.539Z,0.00
2018-05-26T00:30:36.719Z,0.00
2018-05-26T00:31:36.911Z,0.00
2018-05-26T00:32:37.114Z,0.00
2018-05-26T00:33:37.297Z,0.00
2018-05-26T00:34:37.510Z,0.00
2018-05-26T00:35:37.700Z,0.00
2018-05-26T00:36:37.914Z,0.00
2018-05-26T00:37:38.126Z,0.00
2018-05-26T00:38:38.339Z,0.00
2018-05-26T00:39:38.534Z,0.00
2018-05-26T00:40:38.727Z,0.00
2018-05-26T00:41:38.925Z,0.00
2018-05-26T00:42:39.124Z,0.00
2018-05-26T00:43:39.310Z,0.00
2018-05-26T00:44:39.524Z,0.00
2018-05-26T00:45:39.710Z,0.00
2018-05-26T00:46:39.903Z,0.00
2018-05-26T00:47:40.108Z,0.00
2018-05-26T00:48:40.306Z,0.00
2018-05-26T00:49:40.484Z,0.00
2018-05-26T00:50:40.687Z,0.00
2018-05-26T00:51:40.887Z,0.00
2018-05-26T00:52:41.076Z,0.00
2018-05-26T00:53:41.262Z,0.00
2018-05-26T00:54:41.454Z,0.00
2018-05-26T00:55:41.637Z,0.00
2018-05-26T00:56:41.821Z,0.00
2018-05-26T00:57:42.014Z,0.00
2018-05-26T00:58:42.208Z,0.00
2018-05-26T00:59:42.420Z,0.00
2018-05-26T01:00:42.599Z,0.00
2018-05-26T01:01:42.801Z,0.00
2018-05-26T01:02:43.004Z,0.00
2018-05-26T01:03:43.196Z,0.00
2018-05-26T01:04:43.398Z,0.00
2018-05-26T01:05:43.596Z,0.00
2018-05-26T01:06:43.801Z,0.00
2018-05-26T01:07:43.995Z,0.00
2018-05-26T01:08:44.208Z,0.00
2018-05-26T01:09:44.409Z,0.00
2018-05-26T01:12:16.571Z,0.00
2018-05-26T01:13:16.952Z,0.00
2018-05-26T01:14:16.908Z,0.00
2018-05-26T01:15:17.108Z,0.00
2018-05-26T01:16:17.316Z,0.00
2018-05-26T01:17:17.517Z,0.00
2018-05-26T01:18:17.719Z,0.00
2018-05-26T01:19:17.915Z,0.00
2018-05-26T01:20:18.119Z,0.00
2018-05-26T01:21:18.335Z,0.00
2018-05-26T01:22:18.527Z,0.00
2018-05-26T01:23:18.712Z,0.00
2018-05-26T01:24:18.900Z,0.00
2018-05-26T01:25:19.109Z,0.00
2018-05-26T01:26:19.301Z,0.00
2018-05-26T01:27:19.499Z,0.00
2018-05-26T01:28:19.705Z,0.00
2018-05-26T01:29:19.915Z,0.00
2018-05-26T01:30:20.110Z,0.00
2018-05-26T01:31:20.317Z,0.00
2018-05-26T01:32:20.507Z,0.00
2018-05-26T01:33:20.729Z,0.00
2018-05-26T01:34:20.905Z,0.00
2018-05-26T01:35:21.096Z,0.00
2018-05-26T01:36:21.300Z,0.00
2018-05-26T01:37:21.493Z,0.00
2018-05-26T01:38:21.691Z,0.00
2018-05-26T01:39:21.878Z,0.00
2018-05-26T01:40:22.080Z,0.00
2018-05-26T01:41:22.284Z,0.00
2018-05-26T01:42:22.485Z,0.00
2018-05-26T01:43:22.693Z,0.00
2018-05-26T01:44:22.880Z,0.00
2018-05-26T01:45:23.159Z,0.00
2018-05-26T01:46:23.236Z,0.00
2018-05-26T01:47:23.434Z,0.00
2018-05-26T01:48:23.642Z,0.00
2018-05-26T01:49:23.847Z,0.00
2018-05-26T01:50:24.051Z,0.00
2018-05-26T01:51:24.244Z,0.00
2018-05-26T01:52:24.448Z,0.00
2018-05-26T01:53:24.668Z,0.00
2018-05-26T01:54:24.848Z,0.00
2018-05-26T01:55:25.057Z,0.00
2018-05-26T01:56:25.240Z,0.00
2018-05-26T01:57:25.437Z,0.00
2018-05-26T01:58:25.651Z,0.00
2018-05-26T01:59:25.835Z,0.00
2018-05-26T02:00:26.039Z,0.00
2018-05-26T02:01:26.223Z,0.00
2018-05-26T02:02:26.419Z,0.00
2018-05-26T02:03:26.715Z,0.00
2018-05-26T02:04:26.799Z,0.00
2018-05-26T02:05:26.988Z,0.00
2018-05-26T02:06:27.188Z,0.00
2018-05-26T02:07:27.374Z,0.00
2018-05-26T02:08:27.561Z,0.00
2018-05-26T02:09:27.763Z,0.00
2018-05-26T02:10:27.946Z,0.00
2018-05-26T02:11:28.137Z,0.00
2018-05-26T02:12:28.347Z,0.00
2018-05-26T02:13:28.559Z,0.00
2018-05-26T02:14:28.770Z,0.00
2018-05-26T02:15:28.963Z,0.00
2018-05-26T02:16:29.149Z,0.00
2018-05-26T02:17:29.344Z,0.00
2018-05-26T02:18:29.533Z,0.00
2018-05-26T02:19:29.740Z,0.00
2018-05-26T02:20:29.945Z,0.00
2018-05-26T02:21:30.164Z,0.00
2018-05-26T02:22:30.366Z,0.00
2018-05-26T02:23:30.565Z,0.00
2018-05-26T02:24:30.746Z,0.00
2018-05-26T02:25:30.930Z,0.00
2018-05-26T02:26:31.129Z,0.00
2018-05-26T02:27:31.339Z,0.00
2018-05-26T02:28:31.546Z,0.00
2018-05-26T02:29:31.723Z,0.00
2018-05-26T02:30:31.909Z,0.00
2018-05-26T02:31:32.100Z,0.00
2018-05-26T02:32:32.291Z,0.00
2018-05-26T02:33:32.507Z,0.00
2018-05-26T02:34:32.693Z,0.00
2018-05-26T02:35:32.975Z,0.00
2018-05-26T02:36:33.045Z,0.00
2018-05-26T02:37:33.247Z,0.00
2018-05-26T02:38:33.436Z,0.00
2018-05-26T02:39:33.627Z,0.00
2018-05-26T02:40:33.843Z,0.00
2018-05-26T02:41:34.031Z,0.00
2018-05-26T02:42:34.243Z,0.00
2018-05-26T02:43:34.441Z,0.00
2018-05-26T02:44:34.650Z,0.00
2018-05-26T02:45:34.830Z,0.00
2018-05-26T02:46:35.013Z,0.00
2018-05-26T02:47:35.217Z,0.00
2018-05-26T02:48:35.401Z,0.00
2018-05-26T02:49:35.588Z,0.00
2018-05-26T02:50:35.788Z,0.00
2018-05-26T02:51:35.987Z,0.00
2018-05-26T02:52:36.201Z,0.00
2018-05-26T02:53:36.387Z,0.00
2018-05-26T02:54:36.600Z,0.00
2018-05-26T02:55:36.790Z,0.00
2018-05-26T02:56:36.998Z,0.00
2018-05-26T02:57:37.202Z,0.00
2018-05-26T02:58:37.399Z,0.00
2018-05-26T02:59:37.599Z,0.00
2018-05-26T03:00:37.828Z,0.00
2018-05-26T03:01:38.021Z,0.00
2018-05-26T03:02:38.239Z,5.63
2018-05-26T03:03:38.439Z,5.63
2018-05-26T03:04:38.629Z,5.63
2018-05-26T03:05:38.823Z,5.63
2018-05-26T03:06:39.028Z,5.63
2018-05-26T03:07:39.214Z,5.63
2018-05-26T03:08:39.412Z,11.25
2018-05-26T03:09:39.601Z,11.25
2018-05-26T03:10:39.808Z,11.25
2018-05-26T03:11:40.021Z,11.25
2018-05-26T03:12:40.230Z,11.25
2018-05-26T03:13:40.417Z,16.88
2018-05-26T03:14:40.626Z,16.88
2018-05-26T03:15:40.825Z,16.88
2018-05-26T03:16:41.036Z,22.50
2018-05-26T03:17:41.252Z,22.50
2018-05-26T03:18:41.456Z,22.50
2018-05-26T03:19:41.651Z,28.13
2018-05-26T03:20:41.839Z,28.13
2018-05-26T03:21:42.030Z,28.13
2018-05-26T03:22:42.213Z,33.75
2018-05-26T03:23:42.421Z,33.75
2018-05-26T03:24:42.620Z,39.38
2018-05-26T03:25:42.873Z,39.38
2018-05-26T03:26:43.072Z,45.00
2018-05-26T03:27:43.274Z,45.00
2018-05-26T03:28:43.515Z,50.63
2018-05-26T03:29:43.650Z,50.63
2018-05-26T03:30:43.847Z,56.25
2018-05-26T03:31:44.036Z,56.25
2018-05-26T03:32:44.219Z,61.88
2018-05-26T03:33:44.416Z,61.88
2018-05-26T03:34:44.600Z,67.50
2018-05-26T03:35:44.806Z,73.13
2018-05-26T03:36:45.029Z,73.13
2018-05-26T03:37:45.243Z,78.75
2018-05-26T03:38:45.429Z,84.38
2018-05-26T03:39:45.642Z,90.00
2018-05-26T03:40:45.841Z,90.00
2018-05-26T03:41:46.027Z,95.63
2018-05-26T03:44:17.850Z,106.88
2018-05-26T03:45:18.024Z,106.88
2018-05-26T03:46:18.202Z,112.50
2018-05-26T03:47:18.404Z,118.13
2018-05-26T03:48:18.594Z,118.13
2018-05-26T03:49:18.789Z,123.75
2018-05-26T03:50:18.991Z,129.38
2018-05-26T03:51:19.192Z,135.00
2018-05-26T03:52:19.435Z,135.00
2018-05-26T03:53:19.630Z,146.25
2018-05-26T03:54:19.819Z,151.88
2018-05-26T03:55:19.998Z,151.88
2018-05-26T03:56:20.187Z,163.13
2018-05-26T03:57:20.384Z,168.75
2018-05-26T03:58:20.568Z,174.38
2018-05-26T03:59:20.785Z,180.00
2018-05-26T04:00:20.973Z,185.63
2018-05-26T04:01:21.177Z,191.25
2018-05-26T04:02:21.382Z,196.88
2018-05-26T04:03:21.589Z,202.50
2018-05-26T04:04:21.770Z,208.13
2018-05-26T04:05:21.962Z,213.75
2018-05-26T04:06:22.165Z,219.38
2018-05-26T04:07:22.345Z,225.00
2018-05-26T04:08:22.555Z,230.63
2018-05-26T04:09:22.767Z,236.25
2018-05-26T04:10:23.070Z,247.50
2018-05-26T04:11:23.174Z,247.50
2018-05-26T04:12:23.358Z,258.75
2018-05-26T04:13:23.572Z,264.38
2018-05-26T04:14:23.773Z,275.63
2018-05-26T04:15:23.967Z,292.50
2018-05-26T04:16:24.181Z,371.25
2018-05-26T04:17:24.393Z,466.88
2018-05-26T04:18:24.609Z,489.38
2018-05-26T04:19:24.814Z,495.00
2018-05-26T04:20:25.006Z,517.50
2018-05-26T04:21:25.206Z,551.25
2018-05-26T04:22:25.400Z,579.38
2018-05-26T04:23:25.599Z,613.13
2018-05-26T04:24:25.818Z,652.50
2018-05-26T04:25:26.030Z,663.75
2018-05-26T04:26:26.242Z,691.88
2018-05-26T04:27:26.440Z,714.38
2018-05-26T04:28:26.661Z,748.13
2018-05-26T04:29:26.876Z,770.63
2018-05-26T04:30:27.071Z,793.13
2018-05-26T04:31:27.274Z,821.25
2018-05-26T04:32:27.485Z,838.13
2018-05-26T04:33:27.670Z,860.63
2018-05-26T04:34:27.869Z,883.13
2018-05-26T04:35:28.056Z,911.25
2018-05-26T04:36:28.259Z,939.38
2018-05-26T04:37:28.460Z,967.50
2018-05-26T04:38:28.676Z,990.00
2018-05-26T04:39:28.904Z,1040.63
2018-05-26T04:40:29.116Z,1068.75
2018-05-26T04:41:29.325Z,1091.25
2018-05-26T04:42:29.514Z,1108.13
2018-05-26T04:43:29.718Z,1096.88
2018-05-26T04:44:29.914Z,1119.38
2018-05-26T04:45:30.125Z,1158.75
2018-05-26T04:46:30.313Z,1192.50
2018-05-26T04:49:02.146Z,1271.25
2018-05-26T04:50:02.325Z,1288.13
2018-05-26T04:51:02.537Z,1299.38
2018-05-26T04:52:02.741Z,1310.63
2018-05-26T04:53:02.951Z,1338.75
2018-05-26T04:54:03.138Z,1355.63
2018-05-26T04:55:03.360Z,1338.75
2018-05-26T04:56:03.567Z,1327.50
2018-05-26T04:57:03.768Z,1406.25
2018-05-26T04:58:03.955Z,1440.00
2018-05-26T04:59:04.151Z,1468.13
2018-05-26T05:00:04.368Z,1490.63
2018-05-26T05:01:04.572Z,1501.88
2018-05-26T05:02:04.773Z,1507.50
2018-05-26T05:03:05.004Z,1507.50
2018-05-26T05:04:05.201Z,1501.88
2018-05-26T05:05:05.424Z,1530.00
2018-05-26T05:06:05.632Z,1558.13
2018-05-26T05:07:05.851Z,1496.25
2018-05-26T05:08:06.068Z,1535.63
2018-05-26T05:09:06.262Z,1625.63
2018-05-26T05:10:06.454Z,1642.50
2018-05-26T05:11:06.717Z,1710.00
2018-05-26T05:12:06.874Z,1760.63
2018-05-26T05:14:42.333Z,1828.13
2018-05-26T05:15:39.259Z,1845.00
2018-05-26T05:16:39.448Z,1895.63
2018-05-26T05:17:39.640Z,1929.38
2018-05-26T05:18:39.842Z,1946.25
2018-05-26T05:19:40.044Z,1968.75
2018-05-26T05:20:40.247Z,2002.50
2018-05-26T05:21:40.464Z,1996.88
2018-05-26T05:22:40.675Z,2030.63
2018-05-26T05:23:40.877Z,2047.50
2018-05-26T05:24:41.068Z,1890.00
2018-05-26T05:25:41.315Z,2053.13
2018-05-26T05:26:41.511Z,2154.38
2018-05-26T05:27:41.698Z,2188.13
2018-05-26T05:28:41.879Z,2210.63
2018-05-26T05:29:42.095Z,2227.50
2018-05-26T05:30:42.279Z,2233.13
2018-05-26T05:31:42.485Z,2250.00
2018-05-26T05:32:42.700Z,2261.25
2018-05-26T05:33:42.924Z,2300.63
2018-05-26T05:34:43.119Z,2289.38
2018-05-26T05:35:43.328Z,2323.13
2018-05-26T05:36:43.538Z,2356.88
2018-05-26T05:37:43.724Z,2401.88
2018-05-26T05:38:43.936Z,2458.13
2018-05-26T05:39:44.132Z,2514.38
2018-05-26T05:40:44.346Z,2553.75
2018-05-26T05:41:44.554Z,2587.50
2018-05-26T05:42:44.845Z,2621.25
2018-05-26T05:43:44.913Z,2638.13
2018-05-26T05:44:45.107Z,2677.50
2018-05-26T05:45:45.314Z,2694.38
2018-05-26T05:46:45.513Z,2733.75
2018-05-26T05:47:45.731Z,2761.88
2018-05-26T05:48:45.929Z,2778.75
2018-05-26T05:49:46.120Z,2818.13
2018-05-26T05:50:46.341Z,2846.25
2018-05-26T05:51:46.540Z,2874.38
2018-05-26T05:52:46.759Z,2919.38
2018-05-26T05:53:47.141Z,2936.25
2018-05-26T05:54:47.229Z,2964.38
2018-05-26T05:55:47.441Z,2964.38
2018-05-26T05:56:47.660Z,2998.13
2018-05-26T05:57:47.857Z,3026.25
2018-05-26T05:58:48.052Z,3026.25
2018-05-26T05:59:48.250Z,3043.13
2018-05-26T06:00:48.442Z,3060.00
2018-05-26T06:01:48.629Z,3082.50
2018-05-26T06:02:48.831Z,3071.25
2018-05-26T06:03:49.028Z,3071.25
2018-05-26T06:04:49.249Z,3093.75
2018-05-26T06:05:49.460Z,3121.88
2018-05-26T06:06:49.668Z,3043.13
2018-05-26T06:07:49.875Z,3093.75
2018-05-26T06:08:50.082Z,3076.88
2018-05-26T06:09:50.320Z,3240.00
2018-05-26T06:10:50.521Z,3262.50
2018-05-26T06:11:50.735Z,3307.50
2018-05-26T06:14:22.868Z,3403.13
2018-05-26T06:15:22.957Z,3425.63
2018-05-26T06:16:23.135Z,3453.75
2018-05-26T06:17:23.344Z,3481.88
2018-05-26T06:18:23.563Z,3515.63
2018-05-26T06:19:23.754Z,3543.75
2018-05-26T06:20:23.967Z,3560.63
2018-05-26T06:21:24.167Z,3583.13
2018-05-26T06:22:24.390Z,3639.38
2018-05-26T06:23:24.585Z,3656.25
2018-05-26T06:24:24.780Z,3678.75
2018-05-26T06:25:24.985Z,3690.00
2018-05-26T06:26:25.199Z,3706.88
2018-05-26T06:27:25.403Z,3706.88
2018-05-26T06:28:25.623Z,3718.13
2018-05-26T06:29:25.852Z,3735.00
2018-05-26T06:30:26.061Z,3746.25
2018-05-26T06:31:26.286Z,3768.75
2018-05-26T06:32:26.531Z,3791.25
2018-05-26T06:33:26.847Z,3813.75
2018-05-26T06:34:26.939Z,3847.50
2018-05-26T06:35:27.136Z,3892.50
2018-05-26T06:36:27.353Z,3920.63
2018-05-26T06:37:27.573Z,3943.13
2018-05-26T06:38:27.775Z,4010.63
2018-05-26T06:39:27.975Z,4055.63
2018-05-26T06:40:28.192Z,4066.88
2018-05-26T06:41:28.409Z,4083.75
2018-05-26T06:42:28.628Z,4089.38
2018-05-26T06:43:28.830Z,4050.00
2018-05-26T06:44:29.094Z,4027.50
2018-05-26T06:45:29.164Z,4033.13
2018-05-26T06:46:29.394Z,3982.50
2018-05-26T06:47:29.603Z,4066.88
2018-05-26T06:48:29.809Z,4117.50
2018-05-26T06:49:30.022Z,4207.50
2018-05-26T06:50:30.222Z,4263.75
2018-05-26T06:51:30.433Z,4320.00
2018-05-26T06:52:30.647Z,4342.50
2018-05-26T06:53:30.844Z,4320.00
2018-05-26T06:54:31.063Z,4325.63
2018-05-26T06:55:31.268Z,4359.38
2018-05-26T06:56:31.487Z,4365.00
2018-05-26T06:57:31.685Z,4387.50
2018-05-26T06:58:31.890Z,4415.63
2018-05-26T06:59:32.105Z,4432.50
2018-05-26T07:00:32.322Z,4443.75
2018-05-26T07:01:32.520Z,4505.63
2018-05-26T07:02:32.746Z,4533.75
2018-05-26T07:03:32.938Z,4556.25
2018-05-26T07:04:33.170Z,4567.50
2018-05-26T07:05:33.419Z,4539.38
2018-05-26T07:06:33.614Z,4516.88
2018-05-26T07:07:33.815Z,4381.88
2018-05-26T07:08:34.053Z,4539.38
2018-05-26T07:09:34.278Z,4561.88
2018-05-26T07:10:34.500Z,4545.00
2018-05-26T07:11:34.723Z,4561.88
2018-05-26T07:12:34.932Z,4505.63
2018-05-26T07:13:35.152Z,4578.75
2018-05-26T07:14:35.355Z,4550.63
2018-05-26T07:15:35.578Z,4533.75
2018-05-26T07:16:35.783Z,4595.63
2018-05-26T07:17:36.013Z,4651.88
2018-05-26T07:18:36.203Z,4680.00
2018-05-26T07:19:36.447Z,4741.88
2018-05-26T07:20:36.647Z,4781.25
2018-05-26T07:21:36.856Z,4781.25
2018-05-26T07:22:37.240Z,4781.25
2018-05-26T07:23:37.338Z,4753.13
2018-05-26T07:24:37.549Z,4736.25
2018-05-26T07:25:37.752Z,4775.63
2018-05-26T07:26:37.949Z,4741.88
2018-05-26T07:27:38.154Z,4820.63
2018-05-26T07:28:38.365Z,4871.25
2018-05-26T07:29:38.563Z,4933.13
2018-05-26T07:30:38.775Z,4955.63
2018-05-26T07:31:38.993Z,4961.25
2018-05-26T07:32:39.211Z,4961.25
2018-05-26T07:33:39.460Z,4961.25
2018-05-26T07:34:39.649Z,4961.25
2018-05-26T07:35:39.853Z,4972.50
2018-05-26T07:36:40.055Z,5051.25
2018-05-26T07:37:40.258Z,5056.88
2018-05-26T07:38:40.488Z,5079.38
2018-05-26T07:39:40.685Z,5101.88
2018-05-26T07:40:40.885Z,5118.75
2018-05-26T07:41:41.092Z,5118.75
2018-05-26T07:42:41.313Z,5118.75
2018-05-26T07:43:41.523Z,5107.50
2018-05-26T07:44:41.744Z,5197.50
2018-05-26T07:45:41.955Z,5180.63
2018-05-26T07:46:42.145Z,5253.75
2018-05-26T07:47:42.366Z,5236.88
2018-05-26T07:48:42.626Z,5293.13
2018-05-26T07:49:42.703Z,5315.63
2018-05-26T07:50:42.983Z,5366.25
2018-05-26T07:51:43.127Z,5388.75
2018-05-26T07:52:43.354Z,5400.00
2018-05-26T07:53:43.556Z,5388.75
2018-05-26T07:54:43.784Z,5428.13
2018-05-26T07:55:43.986Z,5422.50
2018-05-26T07:56:44.210Z,5439.38
2018-05-26T07:57:44.423Z,5428.13
2018-05-26T07:58:44.620Z,5445.00
2018-05-26T07:59:44.893Z,5450.63
2018-05-26T08:00:44.987Z,5445.00
2018-05-26T08:01:45.210Z,5450.63
2018-05-26T08:02:45.434Z,5478.75
2018-05-26T08:03:45.645Z,5461.88
2018-05-26T08:04:45.862Z,5484.38
2018-05-26T08:05:46.083Z,5501.25
2018-05-26T08:06:46.292Z,5529.38
2018-05-26T08:07:46.627Z,5506.88
2018-05-26T08:08:46.723Z,5501.25
2018-05-26T08:09:46.971Z,5551.88
2018-05-26T08:10:47.224Z,5574.38
2018-05-26T08:11:47.403Z,5568.75
2018-05-26T08:12:47.624Z,5574.38
2018-05-26T08:13:47.851Z,5551.88
2018-05-26T08:14:48.058Z,5529.38
2018-05-26T08:15:48.285Z,5535.00
2018-05-26T08:16:48.489Z,5523.75
2018-05-26T08:17:48.690Z,5563.13
2018-05-26T08:18:48.921Z,5540.63
2018-05-26T08:19:49.133Z,5523.75
2018-05-26T08:20:49.355Z,5563.13
2018-05-26T08:21:49.583Z,5613.75
2018-05-26T08:22:49.781Z,5641.88
2018-05-26T08:23:49.997Z,5658.75
2018-05-26T08:24:50.226Z,5675.63
2018-05-26T08:25:50.462Z,5636.25
2018-05-26T08:26:50.730Z,5619.38
2018-05-26T08:29:22.920Z,5551.88
2018-05-26T08:30:22.982Z,5495.63
2018-05-26T08:31:23.203Z,5484.38
2018-05-26T08:32:23.425Z,5439.38
2018-05-26T08:34:55.592Z,5501.25
2018-05-26T08:35:55.787Z,5585.63
2018-05-26T08:36:56.013Z,5602.50
2018-05-26T08:37:56.208Z,5630.63
2018-05-26T08:38:56.422Z,5703.75
2018-05-26T08:39:56.628Z,5737.50
2018-05-26T08:40:56.867Z,5726.25
2018-05-26T08:41:57.071Z,5703.75
2018-05-26T08:42:57.288Z,5653.13
2018-05-26T08:43:57.514Z,5658.75
2018-05-26T08:44:57.713Z,5630.63
2018-05-26T08:45:57.937Z,5681.25
2018-05-26T08:46:58.153Z,5602.50
2018-05-26T08:47:58.374Z,5625.00
2018-05-26T08:48:58.592Z,5630.63
2018-05-26T08:49:58.812Z,5625.00
2018-05-26T08:50:59.067Z,5630.63
2018-05-26T08:51:59.304Z,5636.25
2018-05-26T08:52:59.564Z,5653.13
2018-05-26T08:53:59.767Z,5658.75
2018-05-26T08:54:59.988Z,5681.25
2018-05-26T08:56:00.185Z,5664.38
2018-05-26T08:57:00.412Z,5585.63
2018-05-26T08:58:00.607Z,5546.25
2018-05-26T08:59:00.863Z,5557.50
2018-05-26T09:00:01.084Z,5580.00
2018-05-26T09:01:01.309Z,5630.63
2018-05-26T09:02:01.528Z,5613.75
2018-05-26T09:03:01.743Z,5535.00
2018-05-26T09:04:01.961Z,5529.38
2018-05-26T09:05:02.179Z,5428.13
2018-05-26T09:06:02.410Z,5231.25
2018-05-26T09:07:02.688Z,5073.75
2018-05-26T09:08:02.786Z,4888.13
2018-05-26T09:09:03.003Z,4741.88
2018-05-26T09:10:03.207Z,4635.00
2018-05-26T09:11:03.432Z,4595.63
2018-05-26T09:12:03.648Z,4528.13
2018-05-26T09:13:03.866Z,4505.63
2018-05-26T09:14:04.067Z,4618.13
2018-05-26T09:15:04.293Z,4764.38
2018-05-26T09:16:04.514Z,4944.38
2018-05-26T09:17:04.728Z,5130.00
2018-05-26T09:18:04.928Z,5253.75
2018-05-26T09:19:05.138Z,5405.63
2018-05-26T09:20:05.348Z,5490.00
2018-05-26T09:21:05.585Z,5546.25
2018-05-26T09:22:05.806Z,5551.88
2018-05-26T09:23:06.032Z,5529.38
2018-05-26T09:24:06.256Z,5518.13
2018-05-26T09:25:06.562Z,5523.75
2018-05-26T09:26:06.736Z,5473.13
2018-05-26T09:27:06.960Z,5428.13
2018-05-26T09:28:07.176Z,5411.25
2018-05-26T09:29:07.402Z,5388.75
2018-05-26T09:30:07.598Z,5377.50
2018-05-26T09:31:07.824Z,5405.63
2018-05-26T09:32:08.052Z,5355.00
2018-05-26T09:34:40.216Z,5388.75
2018-05-26T09:35:40.412Z,5388.75
2018-05-26T09:36:40.732Z,5371.88
2018-05-26T09:37:40.831Z,5388.75
2018-05-26T09:38:41.044Z,5445.00
2018-05-26T09:39:41.260Z,5377.50
2018-05-26T09:40:41.469Z,5332.50
2018-05-26T09:41:41.698Z,5276.25
2018-05-26T09:42:41.894Z,5135.63
2018-05-26T09:43:42.158Z,5169.38
2018-05-26T09:44:42.305Z,5175.00
2018-05-26T09:45:42.524Z,5197.50
2018-05-26T09:46:42.751Z,5163.75
2018-05-26T09:47:42.973Z,5180.63
2018-05-26T09:48:43.208Z,5197.50
2018-05-26T09:49:43.437Z,5152.50
2018-05-26T09:50:43.653Z,5203.13
2018-05-26T09:51:43.882Z,5236.88
2018-05-26T09:52:44.089Z,5248.13
2018-05-26T09:53:44.306Z,5248.13
2018-05-26T09:54:44.502Z,5203.13
2018-05-26T09:55:44.804Z,5191.88
2018-05-26T09:56:44.914Z,5214.38
2018-05-26T09:57:45.115Z,5231.25
2018-05-26T09:58:45.323Z,5225.63
2018-05-26T09:59:45.547Z,5203.13
2018-05-26T10:00:45.748Z,5203.13
2018-05-26T10:01:45.958Z,5191.88
2018-05-26T10:02:46.176Z,5214.38
2018-05-26T10:03:46.413Z,5191.88
2018-05-26T10:04:46.626Z,5191.88
2018-05-26T10:05:46.861Z,5203.13
2018-05-26T10:06:47.071Z,5197.50
2018-05-26T10:07:47.277Z,5163.75
2018-05-26T10:08:47.510Z,5169.38
2018-05-26T10:09:47.717Z,5130.00
2018-05-26T10:10:47.944Z,5062.50
2018-05-26T10:11:48.159Z,5090.63
2018-05-26T10:12:48.382Z,5118.75
2018-05-26T10:13:48.609Z,5045.63
2018-05-26T10:14:48.820Z,5118.75
2018-05-26T10:15:49.020Z,5101.88
2018-05-26T10:16:49.249Z,5079.38
2018-05-26T10:17:49.455Z,5006.25
2018-05-26T10:18:49.676Z,4995.00
2018-05-26T10:19:49.947Z,5017.50
2018-05-26T10:20:50.103Z,5000.63
2018-05-26T10:21:50.310Z,4989.38
2018-05-26T10:22:50.601Z,4972.50
2018-05-26T10:23:50.688Z,4944.38
2018-05-26T10:24:50.885Z,4888.13
2018-05-26T10:25:51.096Z,4775.63
2018-05-26T10:26:51.318Z,4725.00
2018-05-26T10:27:51.532Z,4505.63
2018-05-26T10:28:51.735Z,3526.88
2018-05-26T10:29:51.952Z,2368.13
2018-05-26T10:30:52.175Z,1597.50
2018-05-26T10:31:52.381Z,1552.50
2018-05-26T10:32:52.580Z,1535.63
2018-05-26T10:33:52.861Z,1541.25
2018-05-26T10:34:52.927Z,1546.88
2018-05-26T10:35:53.151Z,1541.25
2018-05-26T10:36:53.377Z,1552.50
2018-05-26T10:37:53.576Z,1575.00
2018-05-26T10:38:53.815Z,1575.00
2018-05-26T10:39:54.019Z,1591.88
2018-05-26T10:40:54.224Z,1575.00
2018-05-26T10:41:54.425Z,1558.13
2018-05-26T10:42:54.645Z,1535.63
2018-05-26T10:43:54.860Z,1530.00
2018-05-26T10:44:55.118Z,1535.63
2018-05-26T10:45:55.312Z,1546.88
2018-05-26T10:46:55.513Z,1546.88
2018-05-26T10:47:55.730Z,1496.25
2018-05-26T10:48:55.927Z,1473.75
2018-05-26T10:49:56.190Z,1462.50
2018-05-26T10:50:56.339Z,1456.88
2018-05-26T10:51:56.560Z,1451.25
2018-05-26T10:52:56.778Z,1451.25
2018-05-26T10:53:57.000Z,1445.63
2018-05-26T10:54:57.224Z,1440.00
2018-05-26T10:55:57.486Z,1434.38
2018-05-26T10:56:57.637Z,1417.50
2018-05-26T10:59:30.573Z,1434.38
2018-05-26T11:00:30.267Z,1400.63
2018-05-26T11:01:30.480Z,1400.63
2018-05-26T11:02:30.680Z,1395.00
2018-05-26T11:03:30.892Z,1378.13
2018-05-26T11:04:31.119Z,1366.88
2018-05-26T11:05:31.297Z,1333.13
2018-05-26T11:06:31.513Z,1316.25
2018-05-26T11:07:31.713Z,1305.00
2018-05-26T11:08:31.913Z,1293.75
2018-05-26T11:09:32.105Z,1288.13
2018-05-26T11:10:32.305Z,1282.50
2018-05-26T11:11:32.511Z,1282.50
2018-05-26T11:12:32.730Z,1305.00
2018-05-26T11:13:32.957Z,1327.50
2018-05-26T11:14:33.160Z,1355.63
2018-05-26T11:15:33.340Z,1361.25
2018-05-26T11:16:33.535Z,1372.50
2018-05-26T11:19:05.831Z,1333.13
2018-05-26T11:20:05.955Z,1321.88
2018-05-26T11:21:06.156Z,1316.25
2018-05-26T11:22:06.369Z,1288.13
2018-05-26T11:23:06.590Z,1237.50
2018-05-26T11:24:07.052Z,1260.00
2018-05-26T11:25:07.113Z,1254.38
2018-05-26T11:26:07.297Z,1260.00
2018-05-26T11:27:07.419Z,1243.13
2018-05-26T11:28:07.636Z,1243.13
2018-05-26T11:29:07.847Z,1226.25
2018-05-26T11:30:08.063Z,1220.63
2018-05-26T11:31:08.278Z,1220.63
2018-05-26T11:32:08.473Z,1226.25
2018-05-26T11:33:08.668Z,1231.88
2018-05-26T11:34:08.870Z,1231.88
2018-05-26T11:35:09.071Z,1226.25
2018-05-26T11:36:09.298Z,1226.25
2018-05-26T11:37:09.499Z,1237.50
2018-05-26T11:38:09.725Z,1271.25
2018-05-26T11:39:09.944Z,1293.75
2018-05-26T11:40:10.155Z,1293.75
2018-05-26T11:41:10.348Z,1254.38
2018-05-26T11:42:10.541Z,1203.75
2018-05-26T11:44:42.946Z,1248.75
2018-05-26T11:45:42.885Z,1226.25
2018-05-26T11:46:43.094Z,1220.63
2018-05-26T11:47:43.306Z,1215.00
2018-05-26T11:48:43.521Z,1220.63
2018-05-26T11:49:43.739Z,1243.13
2018-05-26T11:50:43.950Z,1265.63
2018-05-26T11:51:44.159Z,1248.75
2018-05-26T11:52:44.376Z,1231.88
2018-05-26T11:53:44.600Z,1209.38
2018-05-26T11:54:44.825Z,1203.75
2018-05-26T11:55:45.033Z,1192.50
2018-05-26T11:58:17.259Z,916.88
2018-05-26T11:59:17.434Z,1063.13
2018-05-26T12:00:17.624Z,894.38
2018-05-26T12:01:17.828Z,871.88
2018-05-26T12:02:18.022Z,877.50
2018-05-26T12:03:18.252Z,905.63
2018-05-26T12:04:18.466Z,1018.13
2018-05-26T12:05:18.679Z,1147.50
2018-05-26T12:06:18.884Z,1170.00
2018-05-26T12:07:19.077Z,1186.88
2018-05-26T12:08:19.322Z,1198.13
2018-05-26T12:09:19.502Z,1209.38
2018-05-26T12:10:19.706Z,1237.50
2018-05-26T12:11:19.905Z,1248.75
2018-05-26T12:12:20.112Z,1260.00
2018-05-26T12:13:20.307Z,1248.75
2018-05-26T12:14:20.503Z,1243.13
2018-05-26T12:15:20.729Z,1231.88
2018-05-26T12:16:20.931Z,1237.50
2018-05-26T12:17:21.203Z,1130.63
2018-05-26T12:18:21.366Z,1203.75
2018-05-26T12:19:21.577Z,1186.88
2018-05-26T12:20:21.778Z,1175.63
2018-05-26T12:21:21.979Z,1046.25
2018-05-26T12:22:22.198Z,961.88
2018-05-26T12:23:22.400Z,928.13
2018-05-26T12:24:22.626Z,922.50
2018-05-26T12:25:22.888Z,933.75
2018-05-26T12:26:23.084Z,939.38
2018-05-26T12:27:23.341Z,950.63
2018-05-26T12:28:23.495Z,961.88
2018-05-26T12:29:23.690Z,967.50
2018-05-26T12:30:23.900Z,956.25
2018-05-26T12:31:24.123Z,933.75
2018-05-26T12:32:24.313Z,916.88
2018-05-26T12:33:24.530Z,911.25
2018-05-26T12:34:24.731Z,916.88
2018-05-26T12:35:24.932Z,916.88
2018-05-26T12:36:25.146Z,945.00
2018-05-26T12:37:25.357Z,945.00
2018-05-26T12:38:25.572Z,973.13
2018-05-26T12:40:57.930Z,905.63
2018-05-26T12:41:58.117Z,900.00
2018-05-26T12:42:58.332Z,900.00
2018-05-26T12:43:58.542Z,900.00
2018-05-26T12:44:58.747Z,905.63
2018-05-26T12:45:58.960Z,916.88
2018-05-26T12:46:59.174Z,916.88
2018-05-26T12:47:59.373Z,894.38
2018-05-26T12:48:59.614Z,871.88
2018-05-26T12:49:59.848Z,843.75